Tri-Cities Airport Airport (TRI)

 

Airport Diagram
Current Weather/Forecast (VFR Conditions)
METAR KTRI 202253Z 16004KT 10SM FEW042 SCT090 BKN250 30/21 A3004 RMK AO2 SLP143 CB DSNT SW T03000211
TAF KTRI 202223Z 2022/2118 VRB03KT P6SM SCT040 OVC250 FM210900 00000KT 3SM BR BKN050 FM211200 00000KT 1SM BR SCT005 FM211400 VRB04KT P6SM SCT060 PROB30 2114/2118 4SM -SHRA BKN060 BKN070

All Charts
General
Chart Name Download
AIRPORT DIAGRAM
TAKEOFF MINIMUMS
ALTERNATE MINIMUMS

Departures
Chart Name Download
KINGS ONE
KINGS ONE, CONT.1

Approaches
Chart Name Download
ILS OR LOC RWY 05
ILS OR LOC RWY 23
ILS RWY 23 (SA CAT I)
ILS RWY 23 (CAT II)
RNAV (GPS) RWY 05
RNAV (GPS) RWY 09
RNAV (GPS) RWY 23
RNAV (GPS) RWY 27


Inbound Traffic (Arrivals)

No inbound traffic.


Outbound Traffic (Departures)

No outbound traffic.